sensor_id;sensor_type;location;lat;lon;timestamp;P1;durP1;ratioP1;P2;durP2;ratioP2
37787;SDS011;23627;53.302;-6.362;2022-10-16T00:27:34;1.90;;;0.45;;
37787;SDS011;23627;53.302;-6.362;2022-10-16T00:29:59;1.95;;;0.52;;
37787;SDS011;23627;53.302;-6.362;2022-10-16T00:32:25;0.88;;;0.43;;
37787;SDS011;23627;53.302;-6.362;2022-10-16T00:34:51;2.58;;;0.60;;
37787;SDS011;23627;53.302;-6.362;2022-10-16T00:37:19;1.92;;;0.50;;
37787;SDS011;23627;53.302;-6.362;2022-10-16T00:39:45;1.90;;;0.50;;
37787;SDS011;23627;53.302;-6.362;2022-10-16T00:42:16;2.75;;;0.50;;
37787;SDS011;23627;53.302;-6.362;2022-10-16T00:44:48;2.28;;;0.63;;
37787;SDS011;23627;53.302;-6.362;2022-10-16T00:52:34;2.80;;;0.52;;
37787;SDS011;23627;53.302;-6.362;2022-10-16T00:55:02;1.92;;;0.30;;
37787;SDS011;23627;53.302;-6.362;2022-10-16T00:57:29;1.00;;;0.50;;
37787;SDS011;23627;53.302;-6.362;2022-10-16T00:59:55;1.63;;;0.38;;
37787;SDS011;23627;53.302;-6.362;2022-10-16T01:02:22;1.17;;;0.40;;
37787;SDS011;23627;53.302;-6.362;2022-10-16T01:04:52;3.38;;;0.50;;
37787;SDS011;23627;53.302;-6.362;2022-10-16T01:10:06;3.05;;;0.40;;
37787;SDS011;23627;53.302;-6.362;2022-10-16T01:15:16;1.95;;;0.38;;
37787;SDS011;23627;53.302;-6.362;2022-10-16T01:18:01;1.65;;;0.60;;
37787;SDS011;23627;53.302;-6.362;2022-10-16T01:20:33;1.67;;;0.35;;
37787;SDS011;23627;53.302;-6.362;2022-10-16T02:40:21;1.33;;;0.43;;
37787;SDS011;23627;53.302;-6.362;2022-10-16T03:26:58;1.45;;;0.30;;
37787;SDS011;23627;53.302;-6.362;2022-10-16T03:29:24;2.10;;;0.30;;
37787;SDS011;23627;53.302;-6.362;2022-10-16T03:31:50;1.50;;;0.40;;
37787;SDS011;23627;53.302;-6.362;2022-10-16T03:34:16;1.83;;;0.20;;
37787;SDS011;23627;53.302;-6.362;2022-10-16T03:36:42;1.33;;;0.30;;
37787;SDS011;23627;53.302;-6.362;2022-10-16T03:39:08;1.60;;;0.40;;
37787;SDS011;23627;53.302;-6.362;2022-10-16T03:41:33;1.42;;;0.45;;
37787;SDS011;23627;53.302;-6.362;2022-10-16T03:43:59;2.50;;;0.38;;
37787;SDS011;23627;53.302;-6.362;2022-10-16T03:46:25;2.58;;;0.20;;
37787;SDS011;23627;53.302;-6.362;2022-10-16T03:48:50;1.58;;;0.30;;
37787;SDS011;23627;53.302;-6.362;2022-10-16T03:51:16;2.05;;;0.40;;
37787;SDS011;23627;53.302;-6.362;2022-10-16T03:53:42;1.75;;;0.35;;
37787;SDS011;23627;53.302;-6.362;2022-10-16T03:56:08;2.97;;;0.30;;
37787;SDS011;23627;53.302;-6.362;2022-10-16T03:58:33;1.63;;;0.30;;
37787;SDS011;23627;53.302;-6.362;2022-10-16T04:00:59;2.75;;;0.40;;
37787;SDS011;23627;53.302;-6.362;2022-10-16T04:03:25;1.77;;;0.22;;
37787;SDS011;23627;53.302;-6.362;2022-10-16T04:05:50;1.50;;;0.40;;
37787;SDS011;23627;53.302;-6.362;2022-10-16T04:08:16;1.42;;;0.22;;
37787;SDS011;23627;53.302;-6.362;2022-10-16T04:10:43;3.42;;;0.40;;
37787;SDS011;23627;53.302;-6.362;2022-10-16T04:13:09;3.70;;;0.47;;
37787;SDS011;23627;53.302;-6.362;2022-10-16T04:15:35;2.25;;;0.30;;
37787;SDS011;23627;53.302;-6.362;2022-10-16T04:18:01;0.40;;;0.10;;
37787;SDS011;23627;53.302;-6.362;2022-10-16T04:20:26;1.70;;;0.20;;
37787;SDS011;23627;53.302;-6.362;2022-10-16T04:22:52;0.60;;;0.20;;
37787;SDS011;23627;53.302;-6.362;2022-10-16T04:25:18;3.65;;;0.30;;
37787;SDS011;23627;53.302;-6.362;2022-10-16T04:27:44;1.50;;;0.30;;
37787;SDS011;23627;53.302;-6.362;2022-10-16T04:30:09;1.42;;;0.38;;
37787;SDS011;23627;53.302;-6.362;2022-10-16T04:32:35;2.22;;;0.30;;
37787;SDS011;23627;53.302;-6.362;2022-10-16T04:35:01;3.20;;;0.38;;
37787;SDS011;23627;53.302;-6.362;2022-10-16T04:37:27;2.53;;;0.28;;
37787;SDS011;23627;53.302;-6.362;2022-10-16T04:39:53;1.10;;;0.30;;
37787;SDS011;23627;53.302;-6.362;2022-10-16T04:42:19;1.35;;;0.10;;
37787;SDS011;23627;53.302;-6.362;2022-10-16T04:44:46;2.65;;;0.70;;
37787;SDS011;23627;53.302;-6.362;2022-10-16T04:47:11;1.75;;;0.10;;
37787;SDS011;23627;53.302;-6.362;2022-10-16T04:49:38;2.45;;;0.20;;
37787;SDS011;23627;53.302;-6.362;2022-10-16T04:52:04;1.48;;;0.20;;
37787;SDS011;23627;53.302;-6.362;2022-10-16T04:54:30;2.00;;;0.20;;
37787;SDS011;23627;53.302;-6.362;2022-10-16T04:56:56;0.80;;;0.20;;
37787;SDS011;23627;53.302;-6.362;2022-10-16T04:59:22;2.25;;;0.80;;
37787;SDS011;23627;53.302;-6.362;2022-10-16T05:01:48;2.00;;;0.75;;
37787;SDS011;23627;53.302;-6.362;2022-10-16T05:04:14;0.45;;;0.10;;
37787;SDS011;23627;53.302;-6.362;2022-10-16T05:06:40;2.95;;;0.30;;
37787;SDS011;23627;53.302;-6.362;2022-10-16T05:09:07;2.08;;;0.20;;
37787;SDS011;23627;53.302;-6.362;2022-10-16T05:11:33;1.63;;;0.25;;
37787;SDS011;23627;53.302;-6.362;2022-10-16T05:13:59;1.98;;;0.30;;
37787;SDS011;23627;53.302;-6.362;2022-10-16T05:16:26;1.17;;;0.10;;
37787;SDS011;23627;53.302;-6.362;2022-10-16T05:18:52;4.03;;;0.40;;
37787;SDS011;23627;53.302;-6.362;2022-10-16T05:21:18;2.60;;;0.40;;
37787;SDS011;23627;53.302;-6.362;2022-10-16T05:23:44;3.10;;;0.28;;
37787;SDS011;23627;53.302;-6.362;2022-10-16T05:26:10;1.58;;;0.20;;
37787;SDS011;23627;53.302;-6.362;2022-10-16T05:28:36;2.72;;;0.30;;
37787;SDS011;23627;53.302;-6.362;2022-10-16T05:31:05;1.33;;;0.20;;
37787;SDS011;23627;53.302;-6.362;2022-10-16T05:33:32;1.48;;;0.30;;
37787;SDS011;23627;53.302;-6.362;2022-10-16T05:36:05;1.92;;;0.30;;
37787;SDS011;23627;53.302;-6.362;2022-10-16T05:38:32;1.95;;;0.30;;
37787;SDS011;23627;53.302;-6.362;2022-10-16T05:40:59;1.55;;;0.30;;
37787;SDS011;23627;53.302;-6.362;2022-10-16T05:43:26;2.63;;;0.30;;
37787;SDS011;23627;53.302;-6.362;2022-10-16T05:45:56;2.47;;;0.22;;
37787;SDS011;23627;53.302;-6.362;2022-10-16T05:48:23;1.85;;;0.20;;
37787;SDS011;23627;53.302;-6.362;2022-10-16T05:50:55;4.53;;;0.77;;
37787;SDS011;23627;53.302;-6.362;2022-10-16T05:53:26;2.35;;;0.40;;
37787;SDS011;23627;53.302;-6.362;2022-10-16T05:55:53;1.45;;;0.20;;
37787;SDS011;23627;53.302;-6.362;2022-10-16T05:58:20;1.67;;;0.25;;
37787;SDS011;23627;53.302;-6.362;2022-10-16T06:00:52;2.03;;;0.30;;
37787;SDS011;23627;53.302;-6.362;2022-10-16T06:03:38;3.67;;;0.43;;
37787;SDS011;23627;53.302;-6.362;2022-10-16T06:06:11;1.27;;;0.20;;
37787;SDS011;23627;53.302;-6.362;2022-10-16T06:08:41;2.63;;;0.30;;
37787;SDS011;23627;53.302;-6.362;2022-10-16T06:11:09;3.80;;;0.40;;
37787;SDS011;23627;53.302;-6.362;2022-10-16T06:13:36;1.67;;;0.40;;
37787;SDS011;23627;53.302;-6.362;2022-10-16T06:16:03;2.67;;;0.20;;
37787;SDS011;23627;53.302;-6.362;2022-10-16T06:18:30;2.08;;;0.30;;
37787;SDS011;23627;53.302;-6.362;2022-10-16T06:20:56;2.53;;;0.30;;
37787;SDS011;23627;53.302;-6.362;2022-10-16T06:23:23;2.00;;;0.40;;
37787;SDS011;23627;53.302;-6.362;2022-10-16T06:25:49;3.05;;;0.40;;
37787;SDS011;23627;53.302;-6.362;2022-10-16T06:28:15;2.53;;;0.25;;
37787;SDS011;23627;53.302;-6.362;2022-10-16T06:30:41;3.42;;;0.40;;
37787;SDS011;23627;53.302;-6.362;2022-10-16T06:33:09;2.33;;;0.25;;
37787;SDS011;23627;53.302;-6.362;2022-10-16T06:35:35;3.50;;;0.40;;
37787;SDS011;23627;53.302;-6.362;2022-10-16T06:38:01;2.38;;;0.40;;
37787;SDS011;23627;53.302;-6.362;2022-10-16T06:40:27;2.47;;;0.35;;
37787;SDS011;23627;53.302;-6.362;2022-10-16T06:42:54;3.65;;;0.40;;
37787;SDS011;23627;53.302;-6.362;2022-10-16T06:45:20;2.25;;;0.32;;
37787;SDS011;23627;53.302;-6.362;2022-10-16T06:47:46;6.53;;;0.65;;
37787;SDS011;23627;53.302;-6.362;2022-10-16T06:50:12;1.20;;;0.20;;
37787;SDS011;23627;53.302;-6.362;2022-10-16T06:52:37;1.63;;;0.50;;
37787;SDS011;23627;53.302;-6.362;2022-10-16T06:55:05;2.60;;;0.40;;
37787;SDS011;23627;53.302;-6.362;2022-10-16T06:57:31;3.30;;;0.40;;
37787;SDS011;23627;53.302;-6.362;2022-10-16T06:59:57;2.90;;;0.40;;
37787;SDS011;23627;53.302;-6.362;2022-10-16T07:02:23;3.30;;;0.52;;
37787;SDS011;23627;53.302;-6.362;2022-10-16T07:04:51;3.40;;;0.40;;
37787;SDS011;23627;53.302;-6.362;2022-10-16T07:07:17;3.50;;;0.32;;
37787;SDS011;23627;53.302;-6.362;2022-10-16T07:09:43;1.67;;;0.28;;
37787;SDS011;23627;53.302;-6.362;2022-10-16T07:12:08;3.40;;;0.40;;
37787;SDS011;23627;53.302;-6.362;2022-10-16T07:14:34;2.47;;;0.20;;
37787;SDS011;23627;53.302;-6.362;2022-10-16T07:17:00;2.83;;;0.45;;
37787;SDS011;23627;53.302;-6.362;2022-10-16T07:19:25;2.90;;;0.30;;
37787;SDS011;23627;53.302;-6.362;2022-10-16T07:21:51;2.70;;;0.50;;
37787;SDS011;23627;53.302;-6.362;2022-10-16T07:29:48;1.13;;;0.40;;
37787;SDS011;23627;53.302;-6.362;2022-10-16T07:32:14;4.53;;;0.43;;
37787;SDS011;23627;53.302;-6.362;2022-10-16T08:03:16;3.33;;;0.40;;
37787;SDS011;23627;53.302;-6.362;2022-10-16T08:05:58;3.42;;;0.55;;
37787;SDS011;23627;53.302;-6.362;2022-10-16T08:08:28;3.03;;;0.40;;
37787;SDS011;23627;53.302;-6.362;2022-10-16T08:10:54;1.48;;;0.30;;
37787;SDS011;23627;53.302;-6.362;2022-10-16T08:13:19;4.00;;;0.45;;
37787;SDS011;23627;53.302;-6.362;2022-10-16T08:15:45;2.00;;;0.40;;
37787;SDS011;23627;53.302;-6.362;2022-10-16T08:18:12;2.45;;;0.30;;
37787;SDS011;23627;53.302;-6.362;2022-10-16T08:20:39;3.80;;;0.35;;
37787;SDS011;23627;53.302;-6.362;2022-10-16T08:23:05;3.55;;;0.40;;
37787;SDS011;23627;53.302;-6.362;2022-10-16T08:25:32;2.40;;;0.40;;
37787;SDS011;23627;53.302;-6.362;2022-10-16T08:28:02;1.58;;;0.30;;
37787;SDS011;23627;53.302;-6.362;2022-10-16T08:30:32;3.67;;;0.50;;
37787;SDS011;23627;53.302;-6.362;2022-10-16T08:32:58;2.85;;;0.60;;
37787;SDS011;23627;53.302;-6.362;2022-10-16T08:35:24;3.65;;;0.40;;
37787;SDS011;23627;53.302;-6.362;2022-10-16T08:37:50;1.95;;;0.30;;
37787;SDS011;23627;53.302;-6.362;2022-10-16T08:40:18;1.50;;;0.30;;
37787;SDS011;23627;53.302;-6.362;2022-10-16T08:50:49;4.90;;;0.60;;
37787;SDS011;23627;53.302;-6.362;2022-10-16T08:53:28;3.65;;;0.60;;
37787;SDS011;23627;53.302;-6.362;2022-10-16T08:55:58;3.28;;;0.52;;
37787;SDS011;23627;53.302;-6.362;2022-10-16T08:58:29;3.78;;;0.52;;
37787;SDS011;23627;53.302;-6.362;2022-10-16T09:00:59;1.98;;;0.30;;
37787;SDS011;23627;53.302;-6.362;2022-10-16T09:08:42;3.13;;;0.45;;
37787;SDS011;23627;53.302;-6.362;2022-10-16T09:19:54;2.35;;;0.40;;
37787;SDS011;23627;53.302;-6.362;2022-10-16T09:22:33;4.22;;;0.93;;
37787;SDS011;23627;53.302;-6.362;2022-10-16T09:24:59;4.38;;;0.50;;
37787;SDS011;23627;53.302;-6.362;2022-10-16T09:27:35;4.60;;;0.60;;
37787;SDS011;23627;53.302;-6.362;2022-10-16T09:30:01;5.40;;;0.63;;
37787;SDS011;23627;53.302;-6.362;2022-10-16T09:32:35;1.70;;;0.47;;
37787;SDS011;23627;53.302;-6.362;2022-10-16T09:35:03;4.25;;;0.85;;
37787;SDS011;23627;53.302;-6.362;2022-10-16T09:37:29;2.83;;;0.47;;
37787;SDS011;23627;53.302;-6.362;2022-10-16T09:39:55;5.03;;;0.60;;
37787;SDS011;23627;53.302;-6.362;2022-10-16T09:42:23;6.20;;;0.90;;
37787;SDS011;23627;53.302;-6.362;2022-10-16T09:44:53;4.95;;;0.68;;
37787;SDS011;23627;53.302;-6.362;2022-10-16T09:49:53;3.85;;;0.50;;
37787;SDS011;23627;53.302;-6.362;2022-10-16T09:52:30;2.53;;;0.60;;
37787;SDS011;23627;53.302;-6.362;2022-10-16T09:55:00;3.60;;;0.80;;
37787;SDS011;23627;53.302;-6.362;2022-10-16T09:57:37;2.03;;;0.47;;
37787;SDS011;23627;53.302;-6.362;2022-10-16T10:00:15;2.97;;;0.60;;
37787;SDS011;23627;53.302;-6.362;2022-10-16T10:02:42;3.35;;;0.60;;
37787;SDS011;23627;53.302;-6.362;2022-10-16T10:05:18;3.35;;;0.50;;
37787;SDS011;23627;53.302;-6.362;2022-10-16T10:07:52;3.47;;;0.60;;
37787;SDS011;23627;53.302;-6.362;2022-10-16T10:10:31;3.20;;;0.68;;
37787;SDS011;23627;53.302;-6.362;2022-10-16T10:12:59;3.17;;;0.65;;
37787;SDS011;23627;53.302;-6.362;2022-10-16T10:15:25;4.72;;;0.73;;
37787;SDS011;23627;53.302;-6.362;2022-10-16T10:17:55;4.45;;;0.63;;
37787;SDS011;23627;53.302;-6.362;2022-10-16T10:20:26;2.90;;;0.52;;
37787;SDS011;23627;53.302;-6.362;2022-10-16T10:22:54;4.15;;;0.50;;
37787;SDS011;23627;53.302;-6.362;2022-10-16T10:26:04;3.00;;;0.47;;
37787;SDS011;23627;53.302;-6.362;2022-10-16T10:36:25;1.65;;;0.32;;
37787;SDS011;23627;53.302;-6.362;2022-10-16T10:49:24;2.38;;;0.50;;
37787;SDS011;23627;53.302;-6.362;2022-10-16T10:52:13;4.00;;;0.70;;
37787;SDS011;23627;53.302;-6.362;2022-10-16T11:05:14;1.92;;;0.68;;
37787;SDS011;23627;53.302;-6.362;2022-10-16T11:08:02;3.85;;;0.68;;
37787;SDS011;23627;53.302;-6.362;2022-10-16T11:10:40;2.60;;;0.70;;
37787;SDS011;23627;53.302;-6.362;2022-10-16T11:16:17;6.70;;;0.77;;
37787;SDS011;23627;53.302;-6.362;2022-10-16T11:21:39;2.97;;;0.50;;
37787;SDS011;23627;53.302;-6.362;2022-10-16T11:24:24;1.90;;;0.52;;
37787;SDS011;23627;53.302;-6.362;2022-10-16T11:27:08;3.15;;;0.70;;
37787;SDS011;23627;53.302;-6.362;2022-10-16T11:29:40;5.30;;;0.57;;
37787;SDS011;23627;53.302;-6.362;2022-10-16T11:32:22;3.92;;;0.60;;
37787;SDS011;23627;53.302;-6.362;2022-10-16T11:34:55;3.22;;;0.60;;
37787;SDS011;23627;53.302;-6.362;2022-10-16T11:37:36;5.47;;;0.70;;
37787;SDS011;23627;53.302;-6.362;2022-10-16T11:40:27;5.30;;;1.05;;
37787;SDS011;23627;53.302;-6.362;2022-10-16T11:43:05;2.78;;;0.70;;
37787;SDS011;23627;53.302;-6.362;2022-10-16T11:45:42;3.92;;;0.60;;
37787;SDS011;23627;53.302;-6.362;2022-10-16T11:48:27;3.80;;;0.73;;
37787;SDS011;23627;53.302;-6.362;2022-10-16T11:51:13;2.13;;;0.70;;
37787;SDS011;23627;53.302;-6.362;2022-10-16T11:56:27;4.07;;;0.70;;
37787;SDS011;23627;53.302;-6.362;2022-10-16T11:59:06;1.95;;;0.50;;
37787;SDS011;23627;53.302;-6.362;2022-10-16T12:01:52;4.40;;;0.82;;
37787;SDS011;23627;53.302;-6.362;2022-10-16T12:04:38;3.97;;;0.77;;
37787;SDS011;23627;53.302;-6.362;2022-10-16T12:07:14;1.80;;;0.40;;
37787;SDS011;23627;53.302;-6.362;2022-10-16T12:09:46;2.95;;;0.63;;
37787;SDS011;23627;53.302;-6.362;2022-10-16T12:15:00;3.22;;;0.60;;
37787;SDS011;23627;53.302;-6.362;2022-10-16T12:17:35;2.22;;;0.30;;
37787;SDS011;23627;53.302;-6.362;2022-10-16T12:20:21;3.63;;;0.60;;
37787;SDS011;23627;53.302;-6.362;2022-10-16T12:22:54;1.40;;;0.40;;
37787;SDS011;23627;53.302;-6.362;2022-10-16T12:25:39;1.88;;;0.40;;
37787;SDS011;23627;53.302;-6.362;2022-10-16T12:30:51;4.43;;;1.27;;
37787;SDS011;23627;53.302;-6.362;2022-10-16T12:41:41;4.85;;;1.38;;
37787;SDS011;23627;53.302;-6.362;2022-10-16T12:44:21;5.20;;;1.15;;
37787;SDS011;23627;53.302;-6.362;2022-10-16T14:21:17;3.28;;;1.52;;
37787;SDS011;23627;53.302;-6.362;2022-10-16T14:23:56;5.60;;;1.45;;
37787;SDS011;23627;53.302;-6.362;2022-10-16T15:35:18;8.57;;;3.10;;
37787;SDS011;23627;53.302;-6.362;2022-10-16T15:37:47;9.65;;;2.85;;
37787;SDS011;23627;53.302;-6.362;2022-10-16T15:40:14;9.18;;;2.50;;
37787;SDS011;23627;53.302;-6.362;2022-10-16T15:42:49;8.60;;;2.80;;
37787;SDS011;23627;53.302;-6.362;2022-10-16T15:45:16;8.60;;;2.60;;
37787;SDS011;23627;53.302;-6.362;2022-10-16T15:47:57;6.90;;;2.80;;
37787;SDS011;23627;53.302;-6.362;2022-10-16T15:50:32;6.55;;;1.98;;
37787;SDS011;23627;53.302;-6.362;2022-10-16T15:53:43;6.50;;;1.85;;
37787;SDS011;23627;53.302;-6.362;2022-10-16T15:56:12;5.60;;;2.38;;
37787;SDS011;23627;53.302;-6.362;2022-10-16T16:02:03;4.88;;;1.98;;
37787;SDS011;23627;53.302;-6.362;2022-10-16T16:04:29;5.82;;;2.00;;
37787;SDS011;23627;53.302;-6.362;2022-10-16T16:06:55;5.63;;;1.90;;
37787;SDS011;23627;53.302;-6.362;2022-10-16T16:09:21;7.72;;;1.85;;
37787;SDS011;23627;53.302;-6.362;2022-10-16T16:11:47;5.25;;;1.70;;
37787;SDS011;23627;53.302;-6.362;2022-10-16T16:16:56;6.25;;;2.00;;
37787;SDS011;23627;53.302;-6.362;2022-10-16T16:19:22;6.50;;;2.00;;
37787;SDS011;23627;53.302;-6.362;2022-10-16T16:21:49;8.00;;;2.13;;
37787;SDS011;23627;53.302;-6.362;2022-10-16T16:24:15;7.30;;;1.92;;
37787;SDS011;23627;53.302;-6.362;2022-10-16T16:26:41;7.43;;;2.30;;
37787;SDS011;23627;53.302;-6.362;2022-10-16T16:29:14;8.88;;;2.17;;
37787;SDS011;23627;53.302;-6.362;2022-10-16T16:31:41;7.40;;;2.40;;
37787;SDS011;23627;53.302;-6.362;2022-10-16T16:34:08;9.00;;;2.40;;
37787;SDS011;23627;53.302;-6.362;2022-10-16T16:36:34;10.70;;;3.35;;
37787;SDS011;23627;53.302;-6.362;2022-10-16T16:39:00;6.38;;;2.70;;
37787;SDS011;23627;53.302;-6.362;2022-10-16T16:41:27;9.48;;;3.17;;
37787;SDS011;23627;53.302;-6.362;2022-10-16T16:43:55;10.82;;;3.40;;
37787;SDS011;23627;53.302;-6.362;2022-10-16T16:46:26;12.23;;;4.03;;
37787;SDS011;23627;53.302;-6.362;2022-10-16T16:48:51;10.20;;;3.40;;
37787;SDS011;23627;53.302;-6.362;2022-10-16T16:51:20;10.82;;;3.67;;
37787;SDS011;23627;53.302;-6.362;2022-10-16T16:53:47;10.95;;;3.30;;
37787;SDS011;23627;53.302;-6.362;2022-10-16T16:56:14;10.13;;;3.40;;
37787;SDS011;23627;53.302;-6.362;2022-10-16T16:58:41;9.38;;;3.67;;
37787;SDS011;23627;53.302;-6.362;2022-10-16T17:01:07;8.95;;;3.42;;
37787;SDS011;23627;53.302;-6.362;2022-10-16T17:03:35;8.68;;;3.00;;
37787;SDS011;23627;53.302;-6.362;2022-10-16T17:06:02;7.95;;;2.90;;
37787;SDS011;23627;53.302;-6.362;2022-10-16T17:08:30;8.45;;;2.88;;
37787;SDS011;23627;53.302;-6.362;2022-10-16T17:10:56;10.63;;;3.05;;
37787;SDS011;23627;53.302;-6.362;2022-10-16T17:13:23;10.25;;;2.60;;
37787;SDS011;23627;53.302;-6.362;2022-10-16T17:15:50;8.63;;;2.20;;
37787;SDS011;23627;53.302;-6.362;2022-10-16T17:18:19;5.72;;;2.20;;
37787;SDS011;23627;53.302;-6.362;2022-10-16T17:20:46;9.02;;;2.05;;
37787;SDS011;23627;53.302;-6.362;2022-10-16T17:23:15;10.32;;;2.35;;
37787;SDS011;23627;53.302;-6.362;2022-10-16T17:25:42;9.40;;;2.17;;
37787;SDS011;23627;53.302;-6.362;2022-10-16T17:28:08;7.88;;;2.35;;
37787;SDS011;23627;53.302;-6.362;2022-10-16T17:30:38;9.40;;;1.98;;
37787;SDS011;23627;53.302;-6.362;2022-10-16T17:33:05;10.63;;;1.98;;
37787;SDS011;23627;53.302;-6.362;2022-10-16T17:35:44;9.13;;;1.90;;
37787;SDS011;23627;53.302;-6.362;2022-10-16T17:38:11;6.35;;;2.15;;
37787;SDS011;23627;53.302;-6.362;2022-10-16T17:40:39;7.72;;;2.05;;
37787;SDS011;23627;53.302;-6.362;2022-10-16T18:02:02;19.75;;;10.13;;
37787;SDS011;23627;53.302;-6.362;2022-10-16T18:14:50;9.60;;;3.22;;
37787;SDS011;23627;53.302;-6.362;2022-10-16T18:17:19;10.60;;;3.10;;
37787;SDS011;23627;53.302;-6.362;2022-10-16T18:19:45;11.20;;;3.10;;
37787;SDS011;23627;53.302;-6.362;2022-10-16T18:22:18;10.32;;;2.95;;
37787;SDS011;23627;53.302;-6.362;2022-10-16T18:24:46;9.20;;;2.70;;
37787;SDS011;23627;53.302;-6.362;2022-10-16T18:27:16;11.35;;;3.30;;
37787;SDS011;23627;53.302;-6.362;2022-10-16T18:29:41;8.75;;;2.70;;
37787;SDS011;23627;53.302;-6.362;2022-10-16T18:32:07;9.13;;;2.58;;
37787;SDS011;23627;53.302;-6.362;2022-10-16T18:34:36;9.65;;;2.65;;
37787;SDS011;23627;53.302;-6.362;2022-10-16T18:37:10;9.07;;;2.22;;
37787;SDS011;23627;53.302;-6.362;2022-10-16T18:39:37;12.35;;;2.35;;
37787;SDS011;23627;53.302;-6.362;2022-10-16T18:42:14;10.38;;;2.47;;
37787;SDS011;23627;53.302;-6.362;2022-10-16T18:44:44;12.35;;;2.10;;
37787;SDS011;23627;53.302;-6.362;2022-10-16T18:47:21;12.88;;;2.53;;
37787;SDS011;23627;53.302;-6.362;2022-10-16T18:49:55;10.05;;;1.75;;
37787;SDS011;23627;53.302;-6.362;2022-10-16T18:52:23;12.02;;;2.00;;
37787;SDS011;23627;53.302;-6.362;2022-10-16T19:11:24;16.10;;;2.30;;
37787;SDS011;23627;53.302;-6.362;2022-10-16T19:13:50;12.70;;;2.10;;
37787;SDS011;23627;53.302;-6.362;2022-10-16T19:16:20;10.13;;;1.95;;
37787;SDS011;23627;53.302;-6.362;2022-10-16T19:18:48;12.30;;;2.17;;
37787;SDS011;23627;53.302;-6.362;2022-10-16T19:21:16;13.30;;;2.20;;
37787;SDS011;23627;53.302;-6.362;2022-10-16T19:23:42;15.07;;;2.30;;
37787;SDS011;23627;53.302;-6.362;2022-10-16T19:26:09;11.43;;;1.70;;
37787;SDS011;23627;53.302;-6.362;2022-10-16T19:28:38;9.52;;;1.92;;
37787;SDS011;23627;53.302;-6.362;2022-10-16T19:31:05;7.20;;;1.52;;
37787;SDS011;23627;53.302;-6.362;2022-10-16T19:33:33;9.50;;;1.85;;
37787;SDS011;23627;53.302;-6.362;2022-10-16T19:36:09;8.75;;;1.60;;
37787;SDS011;23627;53.302;-6.362;2022-10-16T19:38:35;8.15;;;1.90;;
37787;SDS011;23627;53.302;-6.362;2022-10-16T19:41:08;9.52;;;2.03;;
37787;SDS011;23627;53.302;-6.362;2022-10-16T19:43:35;10.68;;;1.98;;
37787;SDS011;23627;53.302;-6.362;2022-10-16T19:46:02;5.82;;;1.48;;
37787;SDS011;23627;53.302;-6.362;2022-10-16T19:48:32;6.30;;;1.30;;
37787;SDS011;23627;53.302;-6.362;2022-10-16T19:51:00;3.85;;;1.00;;
37787;SDS011;23627;53.302;-6.362;2022-10-16T19:53:26;5.80;;;0.88;;
37787;SDS011;23627;53.302;-6.362;2022-10-16T19:55:53;3.75;;;0.93;;
37787;SDS011;23627;53.302;-6.362;2022-10-16T19:58:19;5.63;;;1.13;;
37787;SDS011;23627;53.302;-6.362;2022-10-16T20:00:46;3.72;;;0.82;;
37787;SDS011;23627;53.302;-6.362;2022-10-16T20:03:12;4.10;;;0.98;;
37787;SDS011;23627;53.302;-6.362;2022-10-16T20:05:38;4.32;;;0.80;;
37787;SDS011;23627;53.302;-6.362;2022-10-16T20:08:16;5.15;;;1.10;;
37787;SDS011;23627;53.302;-6.362;2022-10-16T20:10:48;4.47;;;0.93;;
37787;SDS011;23627;53.302;-6.362;2022-10-16T20:13:20;2.85;;;0.80;;
37787;SDS011;23627;53.302;-6.362;2022-10-16T20:15:50;4.55;;;0.80;;
37787;SDS011;23627;53.302;-6.362;2022-10-16T20:18:16;3.88;;;0.77;;
37787;SDS011;23627;53.302;-6.362;2022-10-16T20:20:49;3.80;;;0.80;;
37787;SDS011;23627;53.302;-6.362;2022-10-16T20:23:17;1.77;;;0.65;;
37787;SDS011;23627;53.302;-6.362;2022-10-16T20:25:47;3.17;;;1.00;;
37787;SDS011;23627;53.302;-6.362;2022-10-16T20:28:19;3.78;;;0.60;;
37787;SDS011;23627;53.302;-6.362;2022-10-16T20:30:48;3.78;;;0.80;;
37787;SDS011;23627;53.302;-6.362;2022-10-16T20:33:14;3.83;;;0.80;;
37787;SDS011;23627;53.302;-6.362;2022-10-16T20:35:42;3.10;;;0.70;;
37787;SDS011;23627;53.302;-6.362;2022-10-16T20:38:09;3.53;;;0.82;;
37787;SDS011;23627;53.302;-6.362;2022-10-16T20:40:36;5.32;;;1.40;;
37787;SDS011;23627;53.302;-6.362;2022-10-16T20:43:04;5.70;;;1.38;;
37787;SDS011;23627;53.302;-6.362;2022-10-16T20:45:31;2.17;;;0.85;;
37787;SDS011;23627;53.302;-6.362;2022-10-16T20:47:57;4.03;;;1.05;;
37787;SDS011;23627;53.302;-6.362;2022-10-16T20:50:23;4.05;;;0.93;;
37787;SDS011;23627;53.302;-6.362;2022-10-16T20:52:52;2.17;;;0.90;;
37787;SDS011;23627;53.302;-6.362;2022-10-16T20:55:18;2.63;;;0.50;;
37787;SDS011;23627;53.302;-6.362;2022-10-16T20:57:44;2.53;;;0.70;;
37787;SDS011;23627;53.302;-6.362;2022-10-16T21:00:10;1.38;;;0.52;;
37787;SDS011;23627;53.302;-6.362;2022-10-16T21:02:36;2.53;;;1.10;;
37787;SDS011;23627;53.302;-6.362;2022-10-16T21:05:02;1.60;;;0.70;;
37787;SDS011;23627;53.302;-6.362;2022-10-16T21:07:28;2.58;;;0.80;;
37787;SDS011;23627;53.302;-6.362;2022-10-16T21:09:54;1.77;;;0.70;;
37787;SDS011;23627;53.302;-6.362;2022-10-16T21:12:26;1.50;;;0.50;;
37787;SDS011;23627;53.302;-6.362;2022-10-16T21:14:52;1.67;;;0.60;;
37787;SDS011;23627;53.302;-6.362;2022-10-16T21:17:18;0.75;;;0.30;;
37787;SDS011;23627;53.302;-6.362;2022-10-16T21:19:44;1.58;;;0.43;;
37787;SDS011;23627;53.302;-6.362;2022-10-16T21:22:09;2.83;;;0.50;;
37787;SDS011;23627;53.302;-6.362;2022-10-16T21:24:35;2.00;;;0.60;;
37787;SDS011;23627;53.302;-6.362;2022-10-16T21:27:04;3.53;;;0.60;;
37787;SDS011;23627;53.302;-6.362;2022-10-16T21:29:33;3.85;;;0.68;;
37787;SDS011;23627;53.302;-6.362;2022-10-16T21:31:58;3.42;;;0.60;;
37787;SDS011;23627;53.302;-6.362;2022-10-16T21:34:24;2.90;;;0.70;;
37787;SDS011;23627;53.302;-6.362;2022-10-16T21:36:50;4.03;;;0.70;;
37787;SDS011;23627;53.302;-6.362;2022-10-16T21:39:16;4.63;;;0.60;;
37787;SDS011;23627;53.302;-6.362;2022-10-16T21:41:44;4.35;;;1.02;;
37787;SDS011;23627;53.302;-6.362;2022-10-16T21:44:12;7.07;;;0.80;;
37787;SDS011;23627;53.302;-6.362;2022-10-16T21:46:41;3.92;;;0.73;;
37787;SDS011;23627;53.302;-6.362;2022-10-16T21:49:14;5.95;;;0.90;;
37787;SDS011;23627;53.302;-6.362;2022-10-16T21:51:42;7.28;;;1.10;;
37787;SDS011;23627;53.302;-6.362;2022-10-16T21:54:11;7.45;;;1.00;;
37787;SDS011;23627;53.302;-6.362;2022-10-16T21:56:40;5.90;;;0.85;;
37787;SDS011;23627;53.302;-6.362;2022-10-16T22:02:09;5.70;;;0.70;;
37787;SDS011;23627;53.302;-6.362;2022-10-16T22:04:37;5.35;;;1.08;;
37787;SDS011;23627;53.302;-6.362;2022-10-16T22:07:03;6.85;;;1.25;;
37787;SDS011;23627;53.302;-6.362;2022-10-16T22:09:28;6.50;;;1.10;;
37787;SDS011;23627;53.302;-6.362;2022-10-16T22:11:54;4.78;;;1.05;;
37787;SDS011;23627;53.302;-6.362;2022-10-16T22:14:20;7.35;;;1.05;;
37787;SDS011;23627;53.302;-6.362;2022-10-16T22:16:46;7.05;;;1.05;;
37787;SDS011;23627;53.302;-6.362;2022-10-16T22:19:13;9.60;;;1.58;;
37787;SDS011;23627;53.302;-6.362;2022-10-16T22:21:41;6.10;;;1.10;;
37787;SDS011;23627;53.302;-6.362;2022-10-16T22:24:07;9.18;;;1.52;;
37787;SDS011;23627;53.302;-6.362;2022-10-16T22:26:34;7.63;;;1.00;;
37787;SDS011;23627;53.302;-6.362;2022-10-16T22:29:00;8.35;;;1.20;;
37787;SDS011;23627;53.302;-6.362;2022-10-16T22:31:26;9.07;;;1.17;;
37787;SDS011;23627;53.302;-6.362;2022-10-16T22:34:09;7.70;;;0.98;;
37787;SDS011;23627;53.302;-6.362;2022-10-16T22:36:41;8.63;;;1.38;;
37787;SDS011;23627;53.302;-6.362;2022-10-16T22:44:52;9.57;;;1.25;;
37787;SDS011;23627;53.302;-6.362;2022-10-16T22:47:18;7.07;;;1.17;;
37787;SDS011;23627;53.302;-6.362;2022-10-16T22:49:45;6.07;;;1.17;;
37787;SDS011;23627;53.302;-6.362;2022-10-16T22:52:11;9.07;;;1.25;;
37787;SDS011;23627;53.302;-6.362;2022-10-16T22:57:29;8.45;;;1.17;;
37787;SDS011;23627;53.302;-6.362;2022-10-16T23:28:10;9.77;;;1.33;;